createdAt,value
2018-07-17T00:00:08.073Z,76.80
2018-07-17T00:02:36.488Z,77.20
2018-07-17T00:05:06.858Z,77.70
2018-07-17T00:07:35.391Z,78.10
2018-07-17T00:10:03.873Z,77.20
2018-07-17T00:12:32.504Z,76.90
2018-07-17T00:15:00.940Z,77.00
2018-07-17T00:17:29.463Z,76.80
2018-07-17T00:19:57.927Z,77.40
2018-07-17T00:22:27.032Z,75.50
2018-07-17T00:24:55.593Z,75.90
2018-07-17T00:27:24.226Z,76.40
2018-07-17T00:29:52.755Z,77.90
2018-07-17T00:32:21.150Z,80.60
2018-07-17T00:34:49.556Z,80.80
2018-07-17T00:37:17.997Z,81.10
2018-07-17T00:39:46.397Z,81.50
2018-07-17T00:42:14.985Z,81.20
2018-07-17T00:44:43.592Z,81.70
2018-07-17T00:47:12.192Z,81.90
2018-07-17T00:49:40.728Z,82.40
2018-07-17T00:52:09.140Z,82.90
2018-07-17T00:54:37.596Z,83.80
2018-07-17T00:57:06.005Z,84.40
2018-07-17T01:02:08.044Z,85.90
2018-07-17T01:04:41.757Z,86.60
2018-07-17T01:07:15.592Z,87.00
2018-07-17T01:09:49.211Z,87.00
2018-07-17T01:12:16.820Z,87.20
2018-07-17T01:14:50.464Z,87.10
2018-07-17T01:17:19.040Z,87.10
2018-07-17T01:19:47.501Z,87.00
2018-07-17T01:22:15.894Z,87.00
2018-07-17T01:24:44.308Z,86.90
2018-07-17T01:27:12.832Z,87.40
2018-07-17T01:29:41.265Z,86.30
2018-07-17T01:32:09.711Z,87.00
2018-07-17T01:34:38.115Z,87.20
2018-07-17T01:37:06.576Z,86.60
2018-07-17T01:39:34.985Z,86.60
2018-07-17T01:42:03.467Z,87.10
2018-07-17T01:44:31.867Z,88.20
2018-07-17T01:47:00.303Z,88.40
2018-07-17T01:49:28.715Z,89.10
2018-07-17T01:51:57.131Z,88.80
2018-07-17T01:54:25.515Z,89.60
2018-07-17T01:56:53.936Z,90.10
2018-07-17T01:59:22.337Z,91.00
2018-07-17T02:01:50.959Z,90.00
2018-07-17T02:04:19.439Z,89.40
2018-07-17T02:06:47.947Z,89.40
2018-07-17T02:09:16.366Z,90.10
2018-07-17T02:11:44.792Z,90.20
2018-07-17T02:14:13.297Z,88.60
2018-07-17T02:16:41.715Z,90.10
2018-07-17T02:19:10.156Z,90.60
2018-07-17T02:21:38.590Z,90.60
2018-07-17T02:24:07.014Z,90.90
2018-07-17T02:26:35.411Z,90.40
2018-07-17T02:29:03.959Z,90.20
2018-07-17T02:31:32.367Z,90.30
2018-07-17T02:34:00.780Z,90.40
2018-07-17T02:36:29.213Z,90.60
2018-07-17T02:38:57.602Z,90.60
2018-07-17T02:41:26.017Z,90.60
2018-07-17T02:43:54.397Z,90.50
2018-07-17T02:46:22.827Z,90.50
2018-07-17T02:48:51.223Z,90.90
2018-07-17T02:51:19.795Z,91.10
2018-07-17T02:53:48.242Z,91.40
2018-07-17T02:56:16.628Z,91.20
2018-07-17T02:58:45.048Z,90.40
2018-07-17T03:01:13.483Z,90.30
2018-07-17T03:03:41.909Z,90.10
2018-07-17T03:06:10.314Z,90.20
2018-07-17T03:08:38.783Z,90.20
2018-07-17T03:11:07.232Z,90.60
2018-07-17T03:13:35.657Z,90.80
2018-07-17T03:16:04.063Z,90.60
2018-07-17T03:18:32.501Z,90.50
2018-07-17T03:21:00.909Z,90.70
2018-07-17T03:23:29.311Z,90.70
2018-07-17T03:25:57.853Z,91.40
2018-07-17T03:28:26.292Z,92.10
2018-07-17T03:30:54.697Z,92.30
2018-07-17T03:33:23.095Z,91.90
2018-07-17T03:35:51.529Z,91.50
2018-07-17T03:38:19.942Z,90.90
2018-07-17T03:40:48.335Z,90.50
2018-07-17T03:43:16.759Z,90.30
2018-07-17T03:45:45.192Z,90.30
2018-07-17T03:48:13.649Z,90.50
2018-07-17T03:50:42.084Z,90.70
2018-07-17T03:53:10.666Z,91.00
2018-07-17T03:55:39.071Z,90.70
2018-07-17T03:58:07.470Z,90.60
2018-07-17T04:00:35.957Z,90.50
2018-07-17T04:03:04.383Z,90.80
2018-07-17T04:05:32.835Z,90.70
2018-07-17T04:08:01.475Z,90.30
2018-07-17T04:10:29.931Z,90.10
2018-07-17T04:12:58.318Z,90.20
2018-07-17T04:15:26.731Z,90.20
2018-07-17T04:17:55.168Z,90.30
2018-07-17T04:20:23.605Z,90.30
2018-07-17T04:22:51.992Z,90.30
2018-07-17T04:25:20.852Z,90.20
2018-07-17T04:27:49.314Z,90.10
2018-07-17T04:30:17.784Z,90.10
2018-07-17T04:32:46.168Z,90.10
2018-07-17T04:35:14.764Z,90.00
2018-07-17T04:37:43.153Z,90.20
2018-07-17T04:40:11.619Z,90.10
2018-07-17T04:42:40.065Z,90.10
2018-07-17T04:45:08.520Z,90.10
2018-07-17T04:47:37.143Z,90.00
2018-07-17T04:50:06.086Z,90.30
2018-07-17T04:52:34.561Z,90.20
2018-07-17T04:55:02.998Z,88.80
2018-07-17T04:57:31.475Z,88.20
2018-07-17T04:59:59.945Z,87.10
2018-07-17T05:02:28.393Z,87.00
2018-07-17T05:04:56.825Z,86.70
2018-07-17T05:07:25.309Z,86.30
2018-07-17T05:09:53.771Z,85.80
2018-07-17T05:12:22.184Z,86.10
2018-07-17T05:14:50.633Z,87.00
2018-07-17T05:17:19.051Z,86.00
2018-07-17T05:19:48.144Z,85.30
2018-07-17T05:22:16.618Z,85.40
2018-07-17T05:24:45.291Z,85.30
2018-07-17T05:27:13.756Z,84.90
2018-07-17T05:29:42.308Z,84.50
2018-07-17T05:32:11.264Z,84.10
2018-07-17T05:34:39.675Z,84.10
2018-07-17T05:37:08.095Z,83.40
2018-07-17T05:39:36.507Z,82.70
2018-07-17T05:42:04.996Z,82.20
2018-07-17T05:44:33.575Z,82.60
2018-07-17T05:47:02.026Z,82.50
2018-07-17T05:49:30.462Z,82.80
2018-07-17T05:51:58.977Z,82.20
2018-07-17T05:54:27.347Z,82.80
2018-07-17T05:56:55.735Z,82.00
2018-07-17T05:59:24.327Z,81.10
2018-07-17T06:01:52.864Z,81.50
2018-07-17T06:04:21.363Z,82.30
2018-07-17T06:06:51.197Z,83.70
2018-07-17T06:09:19.612Z,83.90
2018-07-17T06:11:48.007Z,82.60
2018-07-17T06:14:16.415Z,81.30
2018-07-17T06:16:44.896Z,80.10
2018-07-17T06:19:13.306Z,79.20
2018-07-17T06:21:41.785Z,78.20
2018-07-17T06:24:10.252Z,78.20
2018-07-17T06:26:38.680Z,77.90
2018-07-17T06:29:07.128Z,77.70
2018-07-17T06:31:35.604Z,76.90
2018-07-17T06:34:04.080Z,76.70
2018-07-17T06:36:32.475Z,77.10
2018-07-17T06:39:00.934Z,74.80
2018-07-17T06:41:29.823Z,75.80
2018-07-17T06:43:58.407Z,75.00
2018-07-17T06:46:26.836Z,75.10
2018-07-17T06:48:55.248Z,73.80
2018-07-17T06:51:23.764Z,73.30
2018-07-17T06:53:52.364Z,72.20
2018-07-17T06:56:20.816Z,72.40
2018-07-17T06:58:49.366Z,73.80
2018-07-17T07:01:17.948Z,75.40
2018-07-17T07:03:46.381Z,76.90
2018-07-17T07:06:14.952Z,77.00
2018-07-17T07:08:43.376Z,77.00
2018-07-17T07:11:12.148Z,77.10
2018-07-17T07:13:40.537Z,77.50
2018-07-17T07:16:08.972Z,77.90
2018-07-17T07:18:37.446Z,78.90
2018-07-17T07:21:05.956Z,80.10
2018-07-17T07:23:34.352Z,80.00
2018-07-17T07:26:02.797Z,80.20
2018-07-17T07:28:31.213Z,79.70
2018-07-17T07:30:59.748Z,79.50
2018-07-17T07:35:56.294Z,79.20
2018-07-17T07:38:24.684Z,78.40
2018-07-17T07:40:53.318Z,78.00
2018-07-17T07:43:21.724Z,78.00
2018-07-17T07:45:50.157Z,78.40
2018-07-17T07:48:18.563Z,78.40
2018-07-17T07:50:47.008Z,78.20
2018-07-17T07:53:15.436Z,77.90
2018-07-17T07:55:43.990Z,77.30
2018-07-17T07:58:12.486Z,76.80
2018-07-17T08:00:40.884Z,76.80
2018-07-17T08:03:10.138Z,76.90
2018-07-17T08:05:38.561Z,74.20
2018-07-17T08:08:07.087Z,72.00
2018-07-17T08:10:35.645Z,71.50
2018-07-17T08:13:04.083Z,71.50
2018-07-17T08:15:32.529Z,71.10
2018-07-17T08:18:01.001Z,71.10
2018-07-17T08:20:29.660Z,72.40
2018-07-17T08:22:58.106Z,73.70
2018-07-17T08:25:26.523Z,72.80
2018-07-17T08:27:54.970Z,72.30
2018-07-17T08:30:23.817Z,70.80
2018-07-17T08:32:52.266Z,68.80
2018-07-17T08:35:20.665Z,67.70
2018-07-17T08:37:49.093Z,65.80
2018-07-17T08:40:17.569Z,63.90
2018-07-17T08:42:45.993Z,61.90
2018-07-17T08:45:14.459Z,59.90
2018-07-17T08:47:42.881Z,59.00
2018-07-17T08:50:11.286Z,59.40
2018-07-17T08:52:39.709Z,58.30
2018-07-17T08:55:08.283Z,58.30
2018-07-17T08:57:36.855Z,58.30
2018-07-17T09:00:06.257Z,58.10
2018-07-17T09:02:34.699Z,57.50
2018-07-17T09:05:03.182Z,56.70
2018-07-17T09:07:31.615Z,54.80
2018-07-17T09:10:00.031Z,54.60
2018-07-17T09:12:28.484Z,53.60
2018-07-17T09:14:56.936Z,53.90
2018-07-17T09:17:25.432Z,54.50
2018-07-17T09:19:53.820Z,53.80
2018-07-17T09:22:23.280Z,52.80
2018-07-17T09:24:51.729Z,53.10
2018-07-17T09:27:20.206Z,52.80
2018-07-17T09:29:48.969Z,52.20
2018-07-17T09:32:17.620Z,51.70
2018-07-17T09:34:46.188Z,52.20
2018-07-17T09:37:14.627Z,50.70
2018-07-17T09:39:43.264Z,50.80
2018-07-17T09:42:11.788Z,51.10
2018-07-17T09:44:40.319Z,50.90
2018-07-17T09:47:08.760Z,50.60
2018-07-17T09:49:37.180Z,49.00
2018-07-17T09:52:06.722Z,50.10
2018-07-17T09:54:35.171Z,50.10
2018-07-17T09:57:03.825Z,50.30
2018-07-17T09:59:32.252Z,51.10
2018-07-17T10:02:05.826Z,51.20
2018-07-17T10:04:34.234Z,50.60
2018-07-17T10:07:02.680Z,50.40
2018-07-17T10:09:31.234Z,49.60
2018-07-17T10:11:59.693Z,50.20
2018-07-17T10:14:28.178Z,50.60
2018-07-17T10:16:57.259Z,51.20
2018-07-17T10:19:28.331Z,50.70
2018-07-17T10:21:57.066Z,50.80
2018-07-17T10:24:25.502Z,50.00
2018-07-17T10:26:53.941Z,49.60
2018-07-17T10:29:22.629Z,48.90
2018-07-17T10:31:51.007Z,47.80
2018-07-17T10:34:19.445Z,46.30
2018-07-17T10:36:47.947Z,46.30
2018-07-17T10:39:16.393Z,46.70
2018-07-17T10:41:44.825Z,47.20
2018-07-17T10:44:13.293Z,47.40
2018-07-17T10:46:41.695Z,47.30
2018-07-17T10:49:10.160Z,47.50
2018-07-17T10:51:38.569Z,46.70
2018-07-17T10:54:11.852Z,46.90
2018-07-17T10:56:40.389Z,47.00
2018-07-17T10:59:08.848Z,46.40
2018-07-17T11:01:37.602Z,45.80
2018-07-17T11:04:06.016Z,45.70
2018-07-17T11:06:34.414Z,45.70
2018-07-17T11:09:03.000Z,45.40
2018-07-17T11:11:31.407Z,45.50
2018-07-17T11:13:59.841Z,45.30
2018-07-17T11:16:28.363Z,45.40
2018-07-17T11:18:56.841Z,44.70
2018-07-17T11:21:25.341Z,45.00
2018-07-17T11:23:53.800Z,44.50
2018-07-17T11:26:22.445Z,44.50
2018-07-17T11:28:50.891Z,44.80
2018-07-17T11:31:19.387Z,44.30
2018-07-17T11:33:47.828Z,43.70
2018-07-17T11:36:16.236Z,43.10
2018-07-17T11:38:44.694Z,42.70
2018-07-17T11:41:13.268Z,42.90
2018-07-17T11:43:41.747Z,42.60
2018-07-17T11:46:10.148Z,42.10
2018-07-17T11:48:38.736Z,42.20
2018-07-17T11:51:07.295Z,42.20
2018-07-17T11:53:35.881Z,41.70
2018-07-17T11:56:04.361Z,41.20
2018-07-17T11:58:33.051Z,41.20
2018-07-17T12:01:01.524Z,42.00
2018-07-17T12:03:30.004Z,42.20
2018-07-17T12:05:58.759Z,42.70
2018-07-17T12:08:27.138Z,42.20
2018-07-17T12:10:55.701Z,42.30
2018-07-17T12:13:24.158Z,41.10
2018-07-17T12:15:52.622Z,40.00
2018-07-17T12:18:21.088Z,39.80
2018-07-17T12:20:49.730Z,40.00
2018-07-17T12:23:18.246Z,40.80
2018-07-17T12:25:46.698Z,40.90
2018-07-17T12:28:15.149Z,41.30
2018-07-17T12:30:43.610Z,41.60
2018-07-17T12:33:12.007Z,42.20
2018-07-17T12:35:40.411Z,42.10
2018-07-17T12:38:08.975Z,42.10
2018-07-17T12:40:37.471Z,42.30
2018-07-17T12:43:06.115Z,42.70
2018-07-17T12:45:34.553Z,42.70
2018-07-17T12:48:03.034Z,42.90
2018-07-17T12:50:31.479Z,43.40
2018-07-17T12:53:00.086Z,43.80
2018-07-17T12:55:28.634Z,44.10
2018-07-17T12:57:59.912Z,44.10
2018-07-17T13:00:28.398Z,44.30
2018-07-17T13:02:56.860Z,44.40
2018-07-17T13:05:25.334Z,44.80
2018-07-17T13:07:53.890Z,45.50
2018-07-17T13:10:22.368Z,45.90
2018-07-17T13:12:50.772Z,45.40
2018-07-17T13:15:19.251Z,45.30
2018-07-17T13:17:47.663Z,45.10
2018-07-17T13:20:19.187Z,44.90
2018-07-17T13:22:47.704Z,44.90
2018-07-17T13:25:16.195Z,45.20
2018-07-17T13:27:44.594Z,45.30
2018-07-17T13:30:13.151Z,45.60
2018-07-17T13:32:41.639Z,45.60
2018-07-17T13:35:10.099Z,45.30
2018-07-17T13:37:38.560Z,45.50
2018-07-17T13:40:06.988Z,45.80
2018-07-17T13:42:35.424Z,45.90
2018-07-17T13:45:04.378Z,45.80
2018-07-17T13:47:32.838Z,45.30
2018-07-17T13:50:02.348Z,45.30
2018-07-17T13:52:30.703Z,45.30
2018-07-17T13:54:59.117Z,45.70
2018-07-17T13:57:27.580Z,45.00
2018-07-17T13:59:56.076Z,44.70
2018-07-17T14:02:24.716Z,44.00
2018-07-17T14:04:53.063Z,44.10
2018-07-17T14:07:21.519Z,44.20
2018-07-17T14:09:49.942Z,44.00
2018-07-17T14:12:18.681Z,43.80
2018-07-17T14:14:47.149Z,43.80
2018-07-17T14:17:15.622Z,44.20
2018-07-17T14:19:44.230Z,44.30
2018-07-17T14:22:12.658Z,44.70
2018-07-17T14:24:41.227Z,44.10
2018-07-17T14:27:09.761Z,44.20
2018-07-17T14:29:38.168Z,44.10
2018-07-17T14:32:06.574Z,44.10
2018-07-17T14:34:34.987Z,44.30
2018-07-17T14:37:03.405Z,44.50
2018-07-17T14:39:31.845Z,44.80
2018-07-17T14:42:00.376Z,44.80
2018-07-17T14:44:28.959Z,44.80
2018-07-17T14:46:59.143Z,44.80
2018-07-17T14:49:27.619Z,44.90
2018-07-17T14:51:56.095Z,44.90
2018-07-17T14:54:24.531Z,44.70
2018-07-17T14:56:52.958Z,44.70
2018-07-17T14:59:21.425Z,44.40
2018-07-17T15:04:18.098Z,44.10
2018-07-17T15:06:46.541Z,43.60
2018-07-17T15:09:15.000Z,43.50
2018-07-17T15:11:43.664Z,42.70
2018-07-17T15:14:12.189Z,42.70
2018-07-17T15:16:40.640Z,43.00
2018-07-17T15:19:09.123Z,42.30
2018-07-17T15:21:37.663Z,42.40
2018-07-17T15:24:06.119Z,42.20
2018-07-17T15:26:34.573Z,42.50
2018-07-17T15:29:03.149Z,42.80
2018-07-17T15:31:31.562Z,43.10
2018-07-17T15:34:00.001Z,43.10
2018-07-17T15:36:28.906Z,43.30
2018-07-17T15:38:57.347Z,43.30
2018-07-17T15:41:25.911Z,43.70
2018-07-17T15:43:54.399Z,44.20
2018-07-17T15:46:22.816Z,44.40
2018-07-17T15:48:51.241Z,44.30
2018-07-17T15:51:19.661Z,44.50
2018-07-17T15:53:48.237Z,44.40
2018-07-17T15:56:16.752Z,44.90
2018-07-17T15:58:45.269Z,44.70
2018-07-17T16:01:13.772Z,44.50
2018-07-17T16:03:42.170Z,44.30
2018-07-17T16:06:10.789Z,44.00
2018-07-17T16:08:39.193Z,44.80
2018-07-17T16:11:07.947Z,44.30
2018-07-17T16:13:36.404Z,44.60
2018-07-17T16:16:05.053Z,45.00
2018-07-17T16:18:33.605Z,45.20
2018-07-17T16:21:02.138Z,45.50
2018-07-17T16:23:30.497Z,45.70
2018-07-17T16:25:58.917Z,45.80
2018-07-17T16:28:27.349Z,45.90
2018-07-17T16:30:55.797Z,46.30
2018-07-17T16:33:24.229Z,46.50
2018-07-17T16:35:52.703Z,46.80
2018-07-17T16:38:21.108Z,47.00
2018-07-17T16:40:49.542Z,47.40
2018-07-17T16:43:17.985Z,47.50
2018-07-17T16:45:46.383Z,47.60
2018-07-17T16:48:14.800Z,48.00
2018-07-17T16:50:43.211Z,48.20
2018-07-17T16:53:11.690Z,48.70
2018-07-17T16:55:40.112Z,49.30
2018-07-17T16:58:09.108Z,49.80
2018-07-17T17:00:37.580Z,50.40
2018-07-17T17:03:06.112Z,50.90
2018-07-17T17:05:34.558Z,51.30
2018-07-17T17:08:03.184Z,51.60
2018-07-17T17:10:31.736Z,52.10
2018-07-17T17:13:00.232Z,52.60
2018-07-17T17:15:28.705Z,54.40
2018-07-17T17:17:57.252Z,56.60
2018-07-17T17:20:25.739Z,58.70
2018-07-17T17:22:54.147Z,58.50
2018-07-17T17:25:23.088Z,61.00
2018-07-17T17:27:51.555Z,65.20
2018-07-17T17:30:20.154Z,70.00
2018-07-17T17:32:48.829Z,76.30
2018-07-17T17:35:17.232Z,79.90
2018-07-17T17:37:45.812Z,81.10
2018-07-17T17:40:14.239Z,81.60
2018-07-17T17:42:42.819Z,82.90
2018-07-17T17:45:11.303Z,84.30
2018-07-17T17:47:39.841Z,86.40
2018-07-17T17:50:08.696Z,88.80
2018-07-17T17:52:37.127Z,90.90
2018-07-17T17:55:05.709Z,91.30
2018-07-17T17:57:34.260Z,91.30
2018-07-17T18:00:02.836Z,91.50
2018-07-17T18:02:31.280Z,91.90
2018-07-17T18:05:00.647Z,91.90
2018-07-17T18:07:29.121Z,92.40
2018-07-17T18:09:57.595Z,92.50
2018-07-17T18:12:26.068Z,92.60
2018-07-17T18:14:54.488Z,93.10
2018-07-17T18:17:22.975Z,93.60
2018-07-17T18:19:51.635Z,93.70
2018-07-17T18:22:19.964Z,94.40
2018-07-17T18:24:48.517Z,94.60
2018-07-17T18:27:16.957Z,94.00
2018-07-17T18:29:45.411Z,93.80
2018-07-17T18:32:14.090Z,94.50
2018-07-17T18:34:42.496Z,94.40
2018-07-17T18:37:11.880Z,94.50
2018-07-17T18:39:40.449Z,94.20
2018-07-17T18:42:09.122Z,94.60
2018-07-17T18:44:37.576Z,94.70
2018-07-17T18:47:06.018Z,94.10
2018-07-17T18:49:34.485Z,94.10
2018-07-17T18:52:02.882Z,95.20
2018-07-17T18:54:32.320Z,95.00
2018-07-17T18:57:00.745Z,94.50
2018-07-17T19:01:57.408Z,94.70
2018-07-17T19:04:26.035Z,95.00
2018-07-17T19:06:54.420Z,95.40
2018-07-17T19:09:22.984Z,95.20
2018-07-17T19:11:51.408Z,94.40
2018-07-17T19:14:20.616Z,95.20
2018-07-17T19:16:49.268Z,96.10
2018-07-17T19:19:17.826Z,96.20
2018-07-17T19:21:46.412Z,96.80
2018-07-17T19:24:14.821Z,97.30
2018-07-17T19:26:43.370Z,96.60
2018-07-17T19:29:11.825Z,97.60
2018-07-17T19:31:41.296Z,97.90
2018-07-17T19:34:09.930Z,98.20
2018-07-17T19:36:38.414Z,98.20
2018-07-17T19:39:09.382Z,98.10
2018-07-17T19:41:37.788Z,98.00
2018-07-17T19:44:06.319Z,97.80
2018-07-17T19:46:34.786Z,97.30
2018-07-17T19:49:03.252Z,97.40
2018-07-17T19:51:32.405Z,97.50
2018-07-17T19:54:00.796Z,97.70
2018-07-17T19:56:29.336Z,97.80
2018-07-17T19:58:57.738Z,98.40
2018-07-17T20:01:26.362Z,98.40
2018-07-17T20:03:54.769Z,98.30
2018-07-17T20:06:24.128Z,98.30
2018-07-17T20:08:52.562Z,98.30
2018-07-17T20:11:20.990Z,98.70
2018-07-17T20:13:49.408Z,98.60
2018-07-17T20:16:17.830Z,98.80
2018-07-17T20:18:46.694Z,98.90
2018-07-17T20:21:15.124Z,98.90
2018-07-17T20:23:43.579Z,98.70
2018-07-17T20:26:12.139Z,98.80
2018-07-17T20:28:40.593Z,98.90
2018-07-17T20:31:09.115Z,98.70
2018-07-17T20:33:37.591Z,98.90
2018-07-17T20:36:06.051Z,99.00
2018-07-17T20:38:34.595Z,98.90
2018-07-17T20:41:02.995Z,98.90
2018-07-17T20:43:31.477Z,99.00
2018-07-17T20:45:59.939Z,99.00
2018-07-17T20:48:28.542Z,99.00
2018-07-17T20:50:56.959Z,99.00
2018-07-17T20:53:25.542Z,99.10
2018-07-17T20:55:53.944Z,99.20
2018-07-17T20:58:22.378Z,99.30
2018-07-17T21:00:51.011Z,99.40
2018-07-17T21:03:19.454Z,99.60
2018-07-17T21:05:49.115Z,99.70
2018-07-17T21:08:17.542Z,99.60
2018-07-17T21:10:46.040Z,99.60
2018-07-17T21:13:14.551Z,99.60
2018-07-17T21:15:42.872Z,99.60
2018-07-17T21:18:11.307Z,99.70
2018-07-17T21:20:39.895Z,99.80
2018-07-17T21:23:08.317Z,99.80
2018-07-17T21:25:36.893Z,99.80
2018-07-17T21:28:05.579Z,99.70
2018-07-17T21:30:34.090Z,99.80
2018-07-17T21:33:02.593Z,99.80
2018-07-17T21:35:31.161Z,99.80
2018-07-17T21:37:59.591Z,99.60
2018-07-17T21:40:28.209Z,99.60
2018-07-17T21:42:56.874Z,99.70
2018-07-17T21:45:25.725Z,99.60
2018-07-17T21:47:54.491Z,99.40
2018-07-17T21:50:22.879Z,99.20
2018-07-17T21:52:54.462Z,99.20
2018-07-17T21:55:22.895Z,99.30
2018-07-17T21:58:02.642Z,98.80
2018-07-17T22:00:38.321Z,99.10
2018-07-17T22:03:06.808Z,99.30
2018-07-17T22:05:35.268Z,98.60
2018-07-17T22:08:03.813Z,98.90
2018-07-17T22:10:32.296Z,99.40
2018-07-17T22:13:07.380Z,99.50
2018-07-17T22:15:36.756Z,99.20
2018-07-17T22:18:05.392Z,98.90
2018-07-17T22:20:33.996Z,98.40
2018-07-17T22:23:02.442Z,97.70
2018-07-17T22:25:30.852Z,97.00
2018-07-17T22:28:01.467Z,97.20
2018-07-17T22:30:29.944Z,97.10
2018-07-17T22:32:58.416Z,97.00
2018-07-17T22:35:26.925Z,96.90
2018-07-17T22:37:55.370Z,95.90
2018-07-17T22:40:23.876Z,96.40
2018-07-17T22:42:52.256Z,96.30
2018-07-17T22:45:20.728Z,96.20
2018-07-17T22:47:49.140Z,95.40
2018-07-17T22:50:17.544Z,95.50
2018-07-17T22:52:45.949Z,94.80
2018-07-17T22:55:14.382Z,94.80
2018-07-17T22:57:42.864Z,94.50
2018-07-17T23:00:11.387Z,93.90
2018-07-17T23:02:39.897Z,93.20
2018-07-17T23:05:08.296Z,92.50
2018-07-17T23:07:36.707Z,92.90
2018-07-17T23:10:05.356Z,92.40
2018-07-17T23:12:33.788Z,92.80
2018-07-17T23:15:02.475Z,92.90
2018-07-17T23:17:30.880Z,92.30
2018-07-17T23:19:59.317Z,92.50
2018-07-17T23:22:39.086Z,93.00
2018-07-17T23:25:07.133Z,93.60
2018-07-17T23:27:35.541Z,93.80
2018-07-17T23:30:04.044Z,93.60
2018-07-17T23:32:32.452Z,93.40
2018-07-17T23:35:00.861Z,93.40
2018-07-17T23:37:29.276Z,93.40
2018-07-17T23:39:57.692Z,93.10
2018-07-17T23:42:26.125Z,92.80
2018-07-17T23:44:54.764Z,92.40
2018-07-17T23:47:23.154Z,92.10
2018-07-17T23:49:51.558Z,92.80
2018-07-17T23:52:20.126Z,93.40
2018-07-17T23:54:48.532Z,93.40
2018-07-17T23:57:16.921Z,93.60
2018-07-17T23:59:45.348Z,93.40
